createdAt,value
2022-08-06T09:37:05.623Z,17.31
2022-08-06T09:57:05.614Z,17.32
2022-08-06T10:17:05.588Z,17.32
2022-08-06T10:37:07.711Z,17.32
2022-08-06T10:57:06.938Z,17.32
2022-08-06T11:17:08.058Z,17.31
2022-08-06T11:37:11.158Z,17.31
2022-08-06T12:17:05.468Z,17.31
2022-08-06T12:37:04.907Z,17.31
2022-08-06T12:57:07.726Z,17.31
2022-08-06T13:17:04.871Z,17.31
2022-08-06T13:37:05.372Z,17.31
2022-08-06T13:57:07.644Z,17.31
2022-08-06T14:17:05.347Z,17.31
2022-08-06T14:37:14.196Z,17.3
2022-08-06T14:57:14.364Z,17.3
2022-08-06T15:17:30.710Z,17.3
2022-08-06T15:37:19.053Z,17.3
2022-08-06T15:57:05.225Z,17.3
2022-08-06T16:17:06.140Z,17.29
2022-08-06T16:37:24.645Z,17.29
2022-08-06T16:57:05.163Z,17.29
2022-08-06T17:17:06.765Z,17.29
2022-08-06T17:37:22.661Z,17.28
2022-08-06T17:57:05.101Z,17.28
2022-08-06T18:17:06.101Z,17.28
2022-08-06T18:37:05.838Z,17.28
2022-08-06T18:57:05.568Z,17.27
2022-08-06T19:37:08.682Z,17.27
2022-08-06T19:57:06.501Z,17.27
2022-08-06T20:17:04.684Z,17.26
2022-08-06T20:37:04.932Z,17.26
2022-08-06T20:57:04.782Z,17.26
2022-08-06T21:17:08.409Z,17.26
2022-08-06T21:57:12.041Z,17.26
2022-08-06T22:37:04.812Z,17.25
2022-08-06T22:57:05.884Z,17.25
2022-08-06T23:17:04.776Z,17.25
2022-08-06T23:37:10.524Z,17.25
2022-08-06T23:57:04.744Z,17.25
